Time;durP1;ratioP1;P1;durP2;ratioP2;P2;SDS_P1;SDS_P2;PMS_P1;PMS_P2;Temp;Humidity;BMP_temperature;BMP_pressure;BME280_temperature;BME280_humidity;BME280_pressure;Samples;Min_cycle;Max_cycle;Signal;HPM_P1;HPM_P2
2022/09/18 00:01:35;;;;;;;3.87;1.10;;;9.80;99.90;;;12.34;59.11;97656.72;5006734;28;20052;-61
2022/09/18 00:04:05;;;;;;;2.90;1.60;;;9.90;99.90;;;12.24;59.66;97651.59;5022915;28;20445;-61
2022/09/18 00:06:37;;;;;;;2.83;1.37;;;9.90;99.90;;;12.55;58.77;97658.81;5006557;28;20064;-61
2022/09/18 00:09:09;;;;;;;1.90;1.20;;;9.90;99.90;;;12.09;59.70;97666.63;5006327;28;20049;-61
2022/09/18 00:11:45;;;;;;;3.47;1.67;;;9.90;99.90;;;12.14;60.41;97666.97;5005899;28;20042;-61
2022/09/18 00:14:18;;;;;;;3.87;1.50;;;9.90;99.90;;;12.45;59.12;97668.88;5005908;28;20344;-61
2022/09/18 00:16:47;;;;;;;4.55;2.08;;;9.90;99.90;;;12.34;59.68;97668.22;5006998;28;20072;-61
2022/09/18 00:19:16;;;;;;;2.70;1.20;;;9.90;99.90;;;12.45;59.15;97664.38;5006318;28;20042;-61
2022/09/18 00:21:47;;;;;;;7.60;1.73;;;9.90;99.90;;;12.34;59.65;97660.22;5006202;28;20046;-60
2022/09/18 00:24:16;;;;;;;4.63;1.20;;;9.90;99.90;;;12.43;59.52;97661.03;5005672;28;20053;-60
2022/09/18 00:26:46;;;;;;;3.40;1.50;;;9.90;99.90;;;12.58;58.99;97661.13;5008165;28;20064;-61
2022/09/18 00:29:16;;;;;;;6.37;1.80;;;9.90;99.90;;;12.50;58.94;97670.00;4989483;28;20062;-60
2022/09/18 00:31:45;;;;;;;5.30;1.70;;;9.90;99.90;;;12.40;59.39;97666.72;5021811;28;20056;-60
2022/09/18 00:34:14;;;;;;;4.83;1.73;;;9.90;99.90;;;12.47;59.17;97659.69;5005257;28;20068;-61
2022/09/18 00:36:42;;;;;;;4.17;2.00;;;9.80;99.90;;;12.23;59.21;97663.25;5007815;28;20057;-60
2022/09/18 00:39:11;;;;;;;2.50;1.70;;;9.80;99.90;;;12.63;58.79;97652.63;4989359;28;20049;-59
2022/09/18 00:41:42;;;;;;;2.90;1.60;;;9.90;99.90;;;12.74;58.13;97660.25;5005650;28;20491;-59
2022/09/18 00:44:32;;;;;;;3.63;1.65;;;10.00;99.90;;;12.43;59.01;97669.06;5006083;28;20057;-61
2022/09/18 00:47:19;;;;;;;3.53;1.63;;;9.90;99.90;;;12.69;58.47;97655.41;5020077;28;20062;-61
2022/09/18 00:50:06;;;;;;;4.63;1.67;;;9.90;99.90;;;12.89;58.17;97654.97;5006067;28;20374;-61
2022/09/18 00:52:56;;;;;;;5.23;1.53;;;10.00;99.90;;;12.74;58.09;97653.06;5006525;28;20046;-61
2022/09/18 00:55:38;;;;;;;6.13;1.83;;;10.00;99.90;;;12.86;57.88;97658.00;5006548;28;20053;-61
2022/09/18 00:58:07;;;;;;;3.33;1.25;;;10.00;99.90;;;12.96;57.57;97661.28;4992032;28;20049;-59
2022/09/18 01:00:35;;;;;;;3.30;1.57;;;10.00;99.90;;;12.82;57.70;97656.72;5009357;28;20049;-59
2022/09/18 01:03:04;;;;;;;3.73;1.50;;;10.00;99.90;;;12.90;57.29;97657.47;5009949;28;20054;-59
2022/09/18 01:05:56;;;;;;;5.37;1.70;;;10.00;99.90;;;13.03;57.23;97664.06;5012336;28;20064;-59
2022/09/18 01:08:47;;;;;;;4.40;1.37;;;10.10;99.90;;;12.90;57.62;97662.81;5008699;28;20050;-59
2022/09/18 01:11:44;;;;;;;2.83;1.43;;;10.20;99.90;;;12.63;57.73;97663.31;5008062;28;20050;-62
2022/09/18 01:14:43;;;;;;;4.87;1.60;;;10.00;99.90;;;12.75;57.88;97661.91;5009351;28;20042;-59
2022/09/18 01:17:25;;;;;;;4.30;1.27;;;9.90;99.90;;;12.94;57.27;97664.13;5010632;28;20061;-59
2022/09/18 01:20:30;;;;;;;1.80;1.30;;;10.00;99.90;;;12.97;56.84;97655.78;5009787;28;20060;-59
2022/09/18 01:23:58;;;;;;;2.23;1.70;;;10.10;99.90;;;12.76;56.77;97675.09;5007927;28;20192;-59
2022/09/18 01:26:55;;;;;;;5.83;1.60;;;10.10;99.90;;;12.95;56.68;97659.63;4995218;28;20050;-60
2022/09/18 01:30:06;;;;;;;3.80;1.40;;;10.00;99.90;;;12.79;56.92;97660.53;4994982;28;20068;-59
2022/09/18 01:32:54;;;;;;;5.80;1.57;;;9.90;99.90;;;12.92;56.57;97659.97;5009672;28;20068;-60
2022/09/18 01:35:47;;;;;;;5.10;1.70;;;10.00;99.90;;;12.79;57.38;97660.53;5008457;28;20064;-60
2022/09/18 01:38:56;;;;;;;7.45;2.65;;;9.90;99.90;;;12.86;57.41;97644.66;5008458;28;20064;-60
2022/09/18 01:41:28;;;;;;;6.47;1.73;;;9.90;99.90;;;12.80;57.75;97660.38;4984647;28;20054;-60
2022/09/18 01:44:04;;;;;;;3.30;1.60;;;9.90;99.90;;;12.67;58.41;97656.59;5009271;28;20352;-60
2022/09/18 01:46:36;;;;;;;3.80;2.53;;;9.90;99.90;;;12.68;58.47;97656.44;5008807;28;20052;-59
2022/09/18 01:49:19;;;;;;;3.80;2.10;;;9.80;99.90;;;12.70;58.47;97645.59;5007641;28;20056;-59
2022/09/18 01:52:04;;;;;;;4.28;2.05;;;9.80;99.90;;;12.72;58.79;97647.06;4993176;28;20177;-59
2022/09/18 01:54:35;;;;;;;;;;;9.80;99.90;;;12.79;58.62;97649.84;5009083;28;20060;-59
2022/09/18 01:57:18;;;;;;;2.67;1.40;;;9.80;99.90;;;12.85;58.11;97638.47;4992991;28;19932;-59
2022/09/18 02:00:01;;;;;;;5.43;1.65;;;9.90;99.90;;;12.85;58.29;97651.81;5007616;28;20060;-59
2022/09/18 02:02:36;;;;;;;5.03;2.00;;;9.90;99.90;;;12.78;58.67;97638.34;5011471;28;20056;-59
2022/09/18 02:05:07;;;;;;;;;;;9.80;99.90;;;12.84;58.46;97639.47;5008795;28;20053;-59
2022/09/18 02:08:01;;;;;;;3.90;1.53;;;9.90;99.90;;;12.75;58.62;97641.34;4991589;28;19924;-61
2022/09/18 02:10:34;;;;;;;2.80;1.70;;;9.90;99.90;;;12.78;58.69;97642.88;4991965;28;20220;-59
2022/09/18 02:13:07;;;;;;;4.40;1.70;;;9.80;99.90;;;12.71;58.86;97641.88;4992308;28;20045;-59
2022/09/18 02:15:38;;;;;;;4.57;1.50;;;9.80;99.90;;;12.75;59.06;97632.50;5006616;28;20062;-59
2022/09/18 02:18:27;;;;;;;3.03;1.77;;;9.80;99.90;;;12.66;59.27;97628.22;4993433;28;20058;-59
2022/09/18 02:20:59;;;;;;;3.20;1.97;;;9.80;99.90;;;12.55;60.12;97635.63;5008612;28;20068;-59
2022/09/18 02:23:28;;;;;;;2.27;1.60;;;9.80;99.90;;;12.65;59.22;97624.72;5007587;28;20065;-61
2022/09/18 02:26:03;;;;;;;3.57;1.60;;;9.80;99.90;;;12.38;60.08;97636.69;4992008;28;20056;-59
2022/09/18 02:28:33;;;;;;;4.40;2.00;;;9.70;99.90;;;12.54;60.11;97625.97;4991604;28;20062;-59
2022/09/18 02:31:02;;;;;;;2.27;1.90;;;9.70;99.90;;;12.62;59.58;97625.09;4992429;28;20062;-59
2022/09/18 02:33:34;;;;;;;3.07;2.00;;;9.70;99.90;;;12.54;60.27;97631.28;5007920;28;20042;-59
2022/09/18 02:36:11;;;;;;;2.77;1.73;;;9.70;99.90;;;12.39;60.57;97633.03;5008996;28;20050;-59
2022/09/18 02:39:13;;;;;;;4.07;1.50;;;9.70;99.90;;;12.53;60.04;97634.13;5006682;28;20046;-59
2022/09/18 02:42:13;;;;;;;7.15;1.88;;;9.80;99.90;;;12.65;59.81;97638.06;5007512;28;20349;-59
2022/09/18 02:45:05;;;;;;;4.07;1.80;;;9.80;99.90;;;12.54;59.98;97633.13;5008476;28;20050;-59
2022/09/18 02:47:39;;;;;;;;;;;9.80;99.90;;;12.58;59.82;97637.94;5024296;28;20068;-59
2022/09/18 02:50:16;;;;;;;2.83;1.60;;;9.80;99.90;;;12.60;59.78;97637.75;5007204;28;20254;-59
2022/09/18 02:53:12;;;;;;;2.30;1.40;;;9.80;99.90;;;12.41;60.60;97642.53;5006162;28;20057;-59
2022/09/18 02:55:57;;;;;;;3.17;1.73;;;9.70;99.90;;;12.48;60.42;97639.16;4991840;28;20209;-59
2022/09/18 02:58:53;;;;;;;2.67;1.93;;;9.70;99.90;;;12.09;61.58;97632.78;4992141;28;20133;-59
2022/09/18 03:01:25;;;;;;;2.57;1.60;;;9.60;99.90;;;12.16;61.71;97636.44;4991342;28;20062;-59
2022/09/18 03:03:54;;;;;;;4.07;1.60;;;9.70;99.90;;;12.26;61.11;97635.41;4992135;28;20056;-59
2022/09/18 03:06:35;;;;;;;2.20;1.40;;;9.60;99.90;;;12.15;61.78;97634.75;4991441;28;20399;-61
2022/09/18 03:09:03;;;;;;;1.57;1.30;;;9.60;99.90;;;12.17;61.61;97631.91;5022662;28;20061;-60
2022/09/18 03:11:31;;;;;;;2.23;1.30;;;9.60;99.90;;;12.34;61.04;97620.19;4990028;28;20058;-60
2022/09/18 03:13:59;;;;;;;4.47;1.50;;;9.60;99.90;;;12.38;61.10;97618.00;5006207;28;20379;-59
2022/09/18 03:16:26;;;;;;;2.13;1.53;;;9.60;99.90;;;12.35;61.28;97613.03;5008606;28;20053;-59
2022/09/18 03:18:54;;;;;;;3.37;1.90;;;9.70;99.90;;;12.50;60.58;97607.78;5008553;28;20384;-60
2022/09/18 03:21:22;;;;;;;4.40;1.83;;;9.70;99.90;;;12.40;60.97;97605.31;5023191;28;20213;-60
2022/09/18 03:23:50;;;;;;;3.07;1.73;;;9.70;99.90;;;12.43;60.58;97613.00;5006067;28;20049;-59
2022/09/18 03:26:24;;;;;;;2.97;1.27;;;9.70;99.90;;;12.48;61.11;97612.44;5005007;28;20261;-59
2022/09/18 03:28:53;;;;;;;3.00;1.53;;;9.70;99.90;;;12.59;60.50;97610.22;5006390;28;20060;-60
2022/09/18 03:31:21;;;;;;;3.13;1.67;;;9.80;99.90;;;12.57;60.48;97604.22;5007795;28;20050;-59
2022/09/18 03:33:49;;;;;;;3.37;1.70;;;9.80;99.90;;;12.63;60.52;97608.03;5005436;28;20076;-60
2022/09/18 03:36:19;;;;;;;2.30;1.60;;;9.80;99.90;;;12.60;60.53;97616.38;5006659;28;20058;-59
2022/09/18 03:38:46;;;;;;;4.40;1.50;;;9.80;99.90;;;12.68;60.63;97610.16;5008378;28;20042;-59
2022/09/18 03:41:14;;;;;;;3.83;2.30;;;9.80;99.90;;;12.32;61.16;97619.53;5005430;28;20054;-59
2022/09/18 03:43:42;;;;;;;2.17;1.30;;;9.70;99.90;;;12.37;60.84;97614.50;5006084;28;20054;-59
2022/09/18 03:46:11;;;;;;;3.37;1.90;;;9.70;99.90;;;12.45;60.81;97615.50;5008078;28;20053;-59
2022/09/18 03:48:39;;;;;;;4.47;1.57;;;9.70;99.90;;;12.58;60.62;97618.41;5006469;28;20068;-59
2022/09/18 03:51:07;;;;;;;3.40;1.50;;;9.70;99.90;;;12.48;60.77;97615.94;5004737;28;20050;-60
2022/09/18 03:53:35;;;;;;;6.87;1.77;;;9.70;99.90;;;12.61;60.69;97632.25;5006595;28;20042;-59
2022/09/18 03:56:17;;;;;;;2.63;1.50;;;9.80;99.90;;;12.32;61.39;97632.03;4991325;28;20062;-59
2022/09/18 03:58:59;;;;;;;3.30;1.60;;;9.70;99.90;;;12.54;60.63;97638.44;5006403;28;20344;-59
2022/09/18 04:01:46;;;;;;;3.23;1.73;;;9.80;99.90;;;12.65;60.45;97646.09;5011397;28;20052;-59
2022/09/18 04:04:27;;;;;;;1.70;1.40;;;9.80;99.90;;;12.59;60.50;97634.25;5010171;28;20385;-60
2022/09/18 04:07:13;;;;;;;3.27;1.70;;;9.80;99.90;;;12.70;60.52;97638.41;5008644;28;20060;-59
2022/09/18 04:09:49;;;;;;;2.77;1.60;;;9.90;99.90;;;12.74;60.00;97637.03;5012240;28;20243;-60
2022/09/18 04:12:17;;;;;;;2.07;1.70;;;9.90;99.90;;;12.69;60.52;97633.22;5004161;28;20049;-59
2022/09/18 04:14:54;;;;;;;2.80;1.60;;;9.90;99.90;;;12.61;60.53;97640.25;5021343;28;20060;-59
2022/09/18 04:17:22;;;;;;;2.20;1.33;;;9.80;99.90;;;12.78;60.25;97633.00;5022067;28;20352;-59
2022/09/18 04:19:50;;;;;;;1.77;1.30;;;9.90;99.90;;;12.81;60.26;97642.50;5006409;28;20062;-59
2022/09/18 04:22:21;;;;;;;5.20;2.87;;;9.90;99.90;;;12.80;60.01;97633.66;5021112;28;20376;-59
2022/09/18 04:24:49;;;;;;;2.37;1.67;;;9.90;99.90;;;12.89;60.11;97636.28;5021423;28;20065;-59
2022/09/18 04:27:17;;;;;;;2.10;1.50;;;9.90;99.90;;;12.88;59.75;97634.63;5022932;28;20054;-59
2022/09/18 04:29:45;;;;;;;4.67;1.53;;;9.90;99.90;;;12.86;60.05;97631.31;5005136;28;20068;-59
2022/09/18 04:32:15;;;;;;;4.23;1.97;;;9.90;99.90;;;12.68;60.63;97640.41;4990623;28;20056;-61
2022/09/18 04:34:43;;;;;;;3.60;1.97;;;9.80;99.90;;;12.74;60.23;97630.88;5004940;28;20247;-59
2022/09/18 04:37:11;;;;;;;3.25;1.60;;;9.80;99.90;;;12.77;60.02;97627.81;5004955;28;20373;-59
2022/09/18 04:39:39;;;;;;;5.90;1.80;;;9.80;99.90;;;12.75;59.83;97625.31;5005487;28;20057;-59
2022/09/18 04:42:08;;;;;;;3.60;3.03;;;9.80;99.90;;;12.69;60.01;97625.22;5021621;28;20092;-59
2022/09/18 04:44:37;;;;;;;5.50;2.20;;;9.80;99.90;;;12.75;60.17;97635.19;5006100;28;20054;-59
2022/09/18 04:47:07;;;;;;;4.80;2.40;;;9.90;99.90;;;12.68;60.61;97635.06;5005952;28;20264;-59
2022/09/18 04:49:35;;;;;;;4.33;2.97;;;9.80;99.90;;;12.73;60.42;97631.84;4988785;28;20063;-59
2022/09/18 04:52:02;;;;;;;4.27;1.93;;;9.80;99.90;;;12.78;59.71;97627.66;5006478;28;20050;-59
2022/09/18 04:54:31;;;;;;;3.60;2.03;;;9.80;99.90;;;12.88;59.83;97647.97;5021210;28;20053;-59
2022/09/18 04:56:58;;;;;;;3.10;2.40;;;10.00;99.90;;;12.69;60.07;97634.03;5005599;28;20054;-59
2022/09/18 04:59:26;;;;;;;6.03;2.20;;;9.90;99.90;;;12.62;60.30;97643.78;5005845;28;20364;-59
2022/09/18 05:01:57;;;;;;;5.40;2.87;;;9.80;99.90;;;12.63;60.47;97634.75;5004652;28;20062;-61
2022/09/18 05:04:26;;;;;;;3.67;2.10;;;9.80;99.90;;;12.69;60.09;97636.72;5005839;28;20244;-61
2022/09/18 05:07:07;;;;;;;5.23;2.47;;;9.80;99.90;;;12.68;60.24;97651.09;5005872;28;20058;-59
2022/09/18 05:09:36;;;;;;;3.20;2.20;;;9.80;99.90;;;12.77;60.14;97647.34;5004786;28;20060;-60
2022/09/18 05:12:06;;;;;;;6.57;2.67;;;9.80;99.90;;;12.82;59.85;97646.03;5005368;28;20050;-59
2022/09/18 05:14:36;;;;;;;4.03;2.20;;;9.80;99.90;;;12.88;60.12;97656.00;4988077;28;20376;-59
2022/09/18 05:17:07;;;;;;;5.43;2.67;;;9.90;99.90;;;12.92;59.82;97649.28;5007872;28;20054;-60
2022/09/18 05:19:38;;;;;;;5.17;2.60;;;9.90;99.90;;;12.80;59.86;97655.03;4989635;28;20056;-60
2022/09/18 05:22:19;;;;;;;5.17;2.87;;;9.80;99.90;;;12.79;60.28;97658.72;5005301;28;20160;-60
2022/09/18 05:24:49;;;;;;;1.90;1.67;;;9.80;99.90;;;12.86;60.09;97669.53;5003876;28;20252;-60
2022/09/18 05:27:17;;;;;;;6.40;2.07;;;9.90;99.90;;;13.00;59.67;97663.41;5006685;28;20236;-60
2022/09/18 05:29:50;;;;;;;7.33;2.13;;;9.90;99.90;;;12.92;59.80;97670.66;5004657;28;20060;-60
2022/09/18 05:32:21;;;;;;;3.50;2.17;;;9.90;99.90;;;12.73;60.35;97659.41;5005217;28;20049;-60
2022/09/18 05:34:50;;;;;;;8.33;4.43;;;9.80;99.90;;;12.61;60.92;97664.28;5004481;28;20050;-60
2022/09/18 05:37:18;;;;;;;6.20;2.90;;;9.80;99.90;;;12.80;60.26;97655.03;5005696;28;20056;-59
2022/09/18 05:39:51;;;;;;;3.57;2.10;;;9.80;99.90;;;12.86;59.91;97668.69;4989695;28;20064;-59
2022/09/18 05:42:19;;;;;;;3.83;2.27;;;9.90;99.90;;;12.94;59.92;97665.97;5007083;28;20059;-59
2022/09/18 05:44:48;;;;;;;3.47;2.30;;;9.90;99.90;;;12.88;60.04;97667.50;4992570;28;20443;-61
2022/09/18 05:47:20;;;;;;;5.23;2.20;;;9.90;99.90;;;12.86;60.17;97671.38;5008866;28;20058;-61
2022/09/18 05:49:48;;;;;;;4.63;2.20;;;9.90;99.90;;;12.87;60.22;97665.88;5024502;28;20057;-61
2022/09/18 05:52:16;;;;;;;5.30;2.23;;;9.90;99.90;;;12.77;60.57;97674.06;5008998;28;20056;-61
2022/09/18 05:54:44;;;;;;;2.50;1.80;;;9.80;99.90;;;12.85;60.08;97669.69;5008315;28;20311;-61
2022/09/18 05:57:11;;;;;;;5.70;3.93;;;9.90;99.90;;;12.84;60.30;97671.53;5008261;28;20060;-61
2022/09/18 05:59:39;;;;;;;3.50;2.10;;;9.90;99.90;;;12.97;59.87;97673.66;5023909;28;20050;-61
2022/09/18 06:02:09;;;;;;;4.37;2.43;;;10.00;99.90;;;12.95;60.06;97667.63;5008309;28;20293;-61
2022/09/18 06:05:04;;;;;;;3.30;2.97;;;10.00;99.90;;;12.99;59.86;97666.28;5007685;28;20433;-61
2022/09/18 06:07:32;;;;;;;6.13;2.60;;;10.00;99.90;;;13.06;60.02;97675.25;5008308;28;20049;-61
2022/09/18 06:10:01;;;;;;;6.13;2.90;;;10.10;99.90;;;13.02;59.91;97668.59;5007876;28;20068;-61
2022/09/18 06:12:30;;;;;;;3.27;2.40;;;10.00;99.90;;;12.93;60.13;97672.31;5024606;28;20061;-61
2022/09/18 06:14:58;;;;;;;6.73;2.97;;;10.00;99.90;;;12.99;59.90;97680.47;5008852;28;20213;-61
2022/09/18 06:17:26;;;;;;;4.07;2.37;;;10.00;99.90;;;12.86;60.60;97684.72;5024228;28;20046;-61
2022/09/18 06:19:58;;;;;;;4.40;2.17;;;10.00;99.90;;;13.02;59.96;97686.47;5007545;28;20062;-61
2022/09/18 06:22:26;;;;;;;3.67;2.70;;;10.00;99.90;;;13.05;60.03;97688.81;5008464;28;20080;-61
2022/09/18 06:24:57;;;;;;;4.50;2.40;;;10.10;99.90;;;12.96;60.20;97691.50;5008475;28;20085;-61
2022/09/18 06:27:32;;;;;;;6.23;3.07;;;10.10;99.90;;;13.05;59.87;97691.50;4992474;28;20058;-59
2022/09/18 06:30:00;;;;;;;4.17;2.57;;;10.10;99.90;;;12.96;60.21;97693.34;5024124;28;20056;-59
2022/09/18 06:32:32;;;;;;;4.53;2.37;;;10.10;99.90;;;13.04;60.07;97687.13;4992518;28;20393;-59
2022/09/18 06:35:00;;;;;;;5.93;3.83;;;10.10;99.90;;;13.13;59.85;97684.25;5008598;28;20054;-59
2022/09/18 06:37:28;;;;;;;4.30;2.97;;;10.20;99.90;;;13.15;59.55;97690.25;5023937;28;20049;-59
2022/09/18 06:40:24;;;;;;;3.05;2.00;;;10.20;99.90;;;13.15;59.47;97684.06;5022793;28;20363;-61
2022/09/18 06:43:12;;;;;;;5.30;4.23;;;10.20;99.90;;;13.16;59.59;97685.72;5008186;28;20058;-61
2022/09/18 06:46:10;;;;;;;4.13;2.70;;;10.20;99.90;;;13.00;59.83;97687.47;5007304;28;20664;-61
2022/09/18 06:48:43;;;;;;;5.93;2.72;;;10.10;99.90;;;13.09;59.42;97688.28;4992438;28;20064;-61
2022/09/18 06:51:11;;;;;;;2.40;1.90;;;10.10;99.90;;;13.06;59.26;97687.78;5008392;28;20053;-61
2022/09/18 06:54:05;;;;;;;4.70;2.60;;;10.10;99.90;;;13.10;59.52;97692.59;5008890;28;20062;-61
2022/09/18 06:56:33;;;;;;;3.17;2.37;;;10.10;99.90;;;12.92;59.74;97692.03;5007594;28;20311;-61
2022/09/18 06:59:01;;;;;;;3.93;2.13;;;10.00;99.90;;;13.02;59.59;97695.31;5023483;28;20058;-61
2022/09/18 07:01:35;;;;;;;3.63;2.10;;;10.10;99.90;;;13.13;59.19;97692.25;5003543;28;20252;-62
2022/09/18 07:04:10;;;;;;;4.93;2.70;;;10.10;99.90;;;13.07;59.38;97690.28;5005456;28;20057;-62
2022/09/18 07:06:45;;;;;;;4.20;2.00;;;10.10;99.90;;;13.03;59.44;97691.66;4990687;28;20054;-61
2022/09/18 07:09:14;;;;;;;6.53;2.43;;;10.10;99.90;;;13.12;59.16;97693.25;5008858;28;20064;-61
2022/09/18 07:12:00;;;;;;;3.20;2.20;;;10.20;99.90;;;13.05;59.19;97691.50;4992352;28;20049;-61
2022/09/18 07:14:48;;;;;;;4.37;2.20;;;10.10;99.90;;;13.01;59.49;97691.00;5006522;28;20050;-61
2022/09/18 07:17:16;;;;;;;4.40;2.00;;;10.20;99.90;;;13.02;59.90;97678.47;5006086;28;20063;-61
2022/09/18 07:19:52;;;;;;;3.90;2.87;;;10.20;99.90;;;12.99;59.95;97682.34;5005520;28;20363;-59
2022/09/18 07:22:23;;;;;;;3.95;3.08;;;10.20;99.90;;;13.12;59.25;97689.75;5022639;28;20052;-59
2022/09/18 07:24:51;;;;;;;3.65;2.20;;;10.30;99.90;;;13.07;59.46;97692.97;5022979;28;20068;-60
2022/09/18 07:27:19;;;;;;;5.18;2.45;;;10.40;99.90;;;13.03;59.56;97691.66;5006560;28;20058;-60
2022/09/18 07:29:49;;;;;;;3.07;2.17;;;10.40;99.90;;;13.02;59.67;97698.00;5021213;28;20069;-60
2022/09/18 07:32:21;;;;;;;3.63;2.03;;;10.50;99.90;;;13.25;59.37;97689.19;5024045;28;20066;-60
2022/09/18 07:34:49;;;;;;;8.18;2.75;;;10.50;99.90;;;13.18;59.39;97699.72;5021954;28;20058;-60
2022/09/18 07:37:28;;;;;;;7.37;2.57;;;10.50;99.90;;;13.44;58.92;97685.25;4991195;28;20057;-60
2022/09/18 07:40:22;;;;;;;4.18;2.15;;;10.60;99.90;;;13.43;58.74;97696.94;5005288;28;20372;-60
2022/09/18 07:43:09;;;;;;;3.00;1.90;;;10.70;99.90;;;13.32;58.92;97682.16;4991428;28;20049;-60
2022/09/18 07:45:44;;;;;;;5.37;2.33;;;10.60;99.90;;;13.19;58.77;97690.72;5005883;28;20072;-60
2022/09/18 07:48:12;;;;;;;3.78;2.13;;;10.60;99.90;;;13.14;59.02;97691.25;5006520;28;20235;-59
2022/09/18 07:50:46;;;;;;;5.03;2.40;;;10.60;99.90;;;13.32;58.66;97699.03;5004968;28;20061;-59
2022/09/18 07:53:16;;;;;;;3.95;1.52;;;10.70;99.90;;;13.23;58.77;97702.72;4988429;28;20080;-60
2022/09/18 07:55:48;;;;;;;;;;;10.70;99.90;;;13.54;58.42;97691.19;5005746;28;20104;-59
2022/09/18 07:58:18;;;;;;;3.53;2.13;;;10.80;99.90;;;13.74;57.72;97700.38;5005141;28;19917;-60
2022/09/18 08:01:06;;;;;;;2.25;1.83;;;10.90;99.90;;;13.69;57.63;97705.44;5005340;28;20073;-60
2022/09/18 08:03:40;;;;;;;4.97;2.65;;;10.90;99.90;;;13.58;57.96;97693.31;5004646;28;20379;-60
2022/09/18 08:06:11;;;;;;;2.92;1.50;;;10.90;99.90;;;13.67;57.83;97702.13;5004563;28;20108;-60
2022/09/18 08:09:06;;;;;;;7.20;6.43;;;11.00;99.90;;;13.80;57.43;97712.19;5011567;28;20062;-60
2022/09/18 08:11:52;;;;;;;3.05;2.42;;;11.00;99.90;;;13.68;57.55;97714.47;5006280;28;20048;-60
2022/09/18 08:14:28;;;;;;;2.85;1.85;;;10.90;99.90;;;13.62;57.37;97722.38;5020810;28;20045;-60
2022/09/18 08:17:22;;;;;;;2.10;1.80;;;10.90;99.90;;;13.87;57.22;97712.31;5004930;28;20058;-60
2022/09/18 08:20:09;;;;;;;5.35;2.08;;;11.10;99.90;;;13.90;57.29;97719.97;5003435;28;20124;-60
2022/09/18 08:22:42;;;;;;;3.08;2.40;;;11.20;99.90;;;13.86;57.05;97719.53;5003699;28;20067;-59
2022/09/18 08:25:11;;;;;;;4.45;1.92;;;11.20;99.90;;;14.09;56.90;97726.66;4988924;28;20060;-59
2022/09/18 08:27:42;;;;;;;2.72;1.92;;;11.30;99.90;;;14.05;56.75;97718.16;5004428;28;20054;-60
2022/09/18 08:30:14;;;;;;;4.03;2.10;;;11.30;99.90;;;14.20;56.39;97726.25;5006005;28;20057;-62
2022/09/18 08:32:44;;;;;;;5.55;3.28;;;11.40;99.90;;;14.32;56.00;97724.78;5006109;28;20067;-62
2022/09/18 08:35:12;;;;;;;4.32;1.95;;;11.50;99.90;;;14.35;55.79;97721.72;5005955;28;20052;-62
2022/09/18 08:37:47;;;;;;;2.70;2.00;;;11.60;99.90;;;14.38;55.93;97728.56;5022327;28;20060;-62
2022/09/18 08:41:05;;;;;;;3.72;2.20;;;11.60;99.90;;;14.41;55.66;97727.38;5004824;28;20348;-61
2022/09/18 08:44:07;;;;;;;3.05;1.77;;;11.70;99.90;;;13.95;55.46;97723.78;5004086;28;20053;-60
2022/09/18 08:46:48;;;;;;;5.43;3.42;;;11.30;99.90;;;14.00;55.88;97723.25;5005467;28;20064;-60
2022/09/18 08:49:45;;;;;;;13.77;8.38;;;11.30;99.90;;;13.92;55.94;97729.50;4989999;28;20061;-60
2022/09/18 08:52:22;;;;;;;4.00;3.05;;;11.20;99.90;;;13.26;57.29;97733.59;5003130;28;20068;-60
2022/09/18 08:55:13;;;;;;;2.92;2.38;;;10.90;99.90;;;13.83;56.43;97724.41;5007289;28;20062;-59
2022/09/18 08:58:15;;;;;;;5.40;2.15;;;11.00;99.90;;;13.91;56.26;97721.66;5004173;28;20058;-62
2022/09/18 09:00:55;;;;;;;5.75;2.58;;;11.20;99.90;;;13.95;56.06;97731.81;5020709;28;20272;-60
2022/09/18 09:03:53;;;;;;;3.95;2.40;;;11.20;99.90;;;14.01;56.08;97718.72;5004754;28;20069;-59
2022/09/18 09:06:37;;;;;;;5.65;2.33;;;11.20;99.90;;;13.95;55.92;97726.44;4988947;28;20056;-61
2022/09/18 09:09:30;;;;;;;4.93;2.50;;;11.30;99.90;;;13.93;55.90;97727.66;4989451;28;20260;-62
2022/09/18 09:12:44;;;;;;;4.47;1.95;;;11.30;99.90;;;14.02;55.90;97728.44;5003641;28;20141;-61
2022/09/18 09:15:27;;;;;;;4.90;2.15;;;11.40;99.90;;;14.28;55.57;97734.19;5014032;28;20064;-62
2022/09/18 09:18:16;;;;;;;7.78;1.73;;;11.50;99.90;;;14.07;55.90;97724.16;5026703;28;20061;-60
2022/09/18 09:20:56;;;;;;;3.13;1.60;;;11.50;99.90;;;14.03;55.70;97724.72;5027391;28;20072;-60
2022/09/18 09:24:22;;;;;;;3.53;1.95;;;11.50;99.90;;;14.02;55.86;97726.56;5012553;28;20067;-60
2022/09/18 09:27:26;;;;;;;2.53;1.60;;;11.50;99.90;;;14.07;55.73;97720.66;5028138;28;20049;-61
2022/09/18 09:30:23;;;;;;;3.72;1.95;;;11.40;99.90;;;14.37;55.38;97713.53;5024854;28;20045;-62
2022/09/18 09:34:03;;;;;;;4.57;1.92;;;11.60;99.90;;;14.45;54.83;97720.63;5025379;28;20042;-62
2022/09/18 09:36:56;;;;;;;3.28;1.75;;;11.80;99.90;;;14.19;55.09;97732.63;5039488;28;20389;-62
2022/09/18 09:39:42;;;;;;;5.47;1.80;;;11.70;99.90;;;14.23;54.83;97711.66;5009221;28;20053;-62
2022/09/18 09:42:39;;;;;;;3.00;1.80;;;11.70;99.90;;;14.46;54.73;97717.78;5053935;28;20053;-61
2022/09/18 09:45:29;;;;;;;5.53;1.70;;;11.80;99.90;;;14.47;54.82;97721.28;5008127;28;20056;-61
2022/09/18 09:48:40;;;;;;;5.32;1.40;;;11.90;99.90;;;14.21;54.97;97722.56;5041108;28;20050;-61
2022/09/18 09:51:46;;;;;;;3.17;1.45;;;11.80;99.90;;;14.36;54.42;97722.56;5040462;28;20045;-61
2022/09/18 09:54:34;;;;;;;8.10;1.70;;;11.90;99.90;;;14.43;54.38;97709.28;5040465;28;20049;-65
2022/09/18 09:57:52;;;;;;;3.20;1.63;;;11.90;99.90;;;14.32;54.34;97703.34;5007772;28;20053;-65
2022/09/18 10:00:22;;;;;;;5.65;2.25;;;11.90;99.90;;;14.54;54.30;97714.19;5038023;28;20055;-64
2022/09/18 10:03:57;;;;;;;5.13;1.48;;;12.00;99.90;;;14.14;54.53;97709.06;5032402;28;20060;-64
2022/09/18 10:07:22;;;;;;;3.45;1.42;;;12.00;99.90;;;14.25;54.36;97737.25;5043359;28;20259;-64
2022/09/18 10:10:20;;;;;;;2.97;1.73;;;12.00;99.90;;;14.59;54.37;97709.13;5028185;28;20616;-64
2022/09/18 10:13:08;;;;;;;3.72;2.15;;;12.10;99.90;;;14.67;53.89;97713.56;5026884;28;20071;-65
2022/09/18 10:15:45;;;;;;;4.45;1.58;;;12.30;99.90;;;14.25;54.00;97705.13;5012304;28;20061;-64
2022/09/18 10:18:32;;;;;;;4.45;1.73;;;12.10;99.30;;;14.56;54.55;97698.75;5025816;28;20057;-64
2022/09/18 10:21:21;;;;;;;4.20;2.10;;;12.30;99.90;;;14.82;53.57;97709.00;5030201;28;20052;-64
2022/09/18 10:24:09;;;;;;;19.08;7.22;;;12.40;99.40;;;14.65;53.21;97705.69;5032286;28;20052;-64
2022/09/18 10:26:57;;;;;;;20.02;8.82;;;12.40;98.30;;;14.89;53.22;97706.44;5018499;28;21103;-64
2022/09/18 10:29:25;;;;;;;7.85;2.95;;;12.60;97.20;;;14.97;52.92;97698.28;5044869;28;20361;-63
2022/09/18 10:32:00;;;;;;;4.32;1.70;;;12.70;97.40;;;15.31;52.74;97699.47;5016333;28;20065;-63
2022/09/18 10:34:36;;;;;;;4.68;1.60;;;13.00;97.70;;;15.55;52.25;97698.28;5047685;28;20511;-64
2022/09/18 10:37:05;;;;;;;2.75;1.80;;;13.20;97.00;;;15.85;52.20;97690.94;5046714;28;20378;-63
2022/09/18 10:39:37;;;;;;;7.53;2.58;;;13.30;96.90;;;15.60;51.79;97690.47;5047340;28;20048;-64
2022/09/18 10:42:17;;;;;;;3.63;2.20;;;13.40;94.40;;;15.31;50.42;97681.53;5031203;28;20057;-61
2022/09/18 10:44:57;;;;;;;3.08;1.50;;;13.20;87.30;;;15.47;50.31;97677.78;5030014;28;20053;-62
2022/09/18 10:47:35;;;;;;;2.08;1.13;;;13.20;87.80;;;15.69;50.64;97681.28;5046228;28;20061;-62
2022/09/18 10:50:12;;;;;;;3.40;1.30;;;13.40;91.10;;;15.91;49.95;97678.59;5030453;28;20064;-62
2022/09/18 10:52:47;;;;;;;4.95;1.35;;;13.50;87.90;;;15.84;49.13;97681.25;5046715;28;20559;-62
2022/09/18 10:55:26;;;;;;;3.97;1.52;;;13.60;84.80;;;15.91;48.56;97681.28;5015403;28;20067;-63
2022/09/18 10:58:12;;;;;;;3.97;1.50;;;13.60;82.80;;;15.47;48.43;97666.19;5046980;28;20561;-61
2022/09/18 11:01:15;;;;;;;1.33;0.98;;;13.50;79.00;;;15.63;49.18;97660.59;5031057;28;20059;-61
2022/09/18 11:04:03;;;;;;;3.10;1.33;;;13.50;80.20;;;15.83;47.43;97651.91;5044714;28;20063;-61
2022/09/18 11:06:37;;;;;;;3.40;1.08;;;13.70;75.20;;;16.09;47.21;97654.78;5031344;28;20060;-62
2022/09/18 11:09:20;;;;;;;2.60;0.70;;;13.90;73.10;;;16.35;47.47;97658.66;5045383;28;20719;-61
2022/09/18 11:11:50;;;;;;;7.63;2.25;;;13.90;72.50;;;15.66;47.56;97664.72;5046199;28;20251;-61